Time;durP1;ratioP1;P1;durP2;ratioP2;P2;SDS_P1;SDS_P2;PMS_P1;PMS_P2;Temp;Humidity;BMP_temperature;BMP_pressure;BME280_temperature;BME280_humidity;BME280_pressure;Samples;Min_cycle;Max_cycle;Signal;HPM_P1;HPM_P2
2023/05/11 00:02:11;;;;;;;;;;;;;;;10.98;nan;100329.63;4986693;28;19922;-86
2023/05/11 00:04:36;;;;;;;;;;;;;;;10.94;nan;100325.69;4987963;28;20317;-85
2023/05/11 00:07:01;;;;;;;;;;;;;;;10.93;nan;100328.47;4988848;28;20012;-85
2023/05/11 00:09:27;;;;;;;;;;;;;;;10.93;nan;100320.53;4986416;28;19972;-86
2023/05/11 00:11:52;;;;;;;;;;;;;;;10.94;nan;100320.38;4990229;28;19972;-85
2023/05/11 00:14:17;;;;;;;;;;;;;;;10.94;nan;100317.75;4982523;28;19926;-85
2023/05/11 00:16:42;;;;;;;;;;;;;;;10.94;nan;100320.38;4990086;28;20021;-86
2023/05/11 00:19:07;;;;;;;;;;;;;;;10.95;nan;100322.03;4990473;28;19922;-86
2023/05/11 00:21:32;;;;;;;;;;;;;;;10.99;nan;100319.91;4988599;28;19926;-86
2023/05/11 00:23:58;;;;;;;;;;;;;;;11.00;nan;100325.03;4987520;28;20004;-86
2023/05/11 00:26:23;;;;;;;;;;;;;;;11.00;nan;100322.38;4990231;28;20350;-85
2023/05/11 00:28:50;;;;;;;;;;;;;;;10.98;nan;100313.75;4988184;28;21185;-86
2023/05/11 00:31:15;;;;;;;;;;;;;;;10.98;nan;100313.75;4990206;28;19922;-86
2023/05/11 00:33:40;;;;;;;;;;;;;;;10.98;nan;100310.31;4988997;28;19921;-85
2023/05/11 00:36:06;;;;;;;;;;;;;;;10.99;nan;100312.78;4988893;28;19926;-86
2023/05/11 00:38:32;;;;;;;;;;;;;;;10.99;nan;100307.50;4989944;28;20038;-85
2023/05/11 00:40:57;;;;;;;;;;;;;;;10.99;nan;100315.44;4972630;28;20009;-85
2023/05/11 00:43:22;;;;;;;;;;;;;;;10.97;nan;100314.75;4988281;28;19922;-86
2023/05/11 00:45:48;;;;;;;;;;;;;;;10.93;nan;100308.13;4987219;28;20397;-86
2023/05/11 00:48:14;;;;;;;;;;;;;;;10.90;nan;100305.81;4986482;28;20410;-85
2023/05/11 00:50:39;;;;;;;;;;;;;;;10.90;nan;100310.28;4983608;28;20017;-86
2023/05/11 00:53:04;;;;;;;;;;;;;;;10.87;nan;100303.50;4987080;28;19977;-86
2023/05/11 00:55:30;;;;;;;;;;;;;;;10.83;nan;100305.59;4970410;28;19988;-86
2023/05/11 00:57:55;;;;;;;;;;;;;;;10.82;nan;100305.75;4970605;28;19972;-86
2023/05/11 01:00:21;;;;;;;;;;;;;;;10.79;nan;100304.25;4969438;28;19922;-86
2023/05/11 01:02:46;;;;;;;;;;;;;;;10.77;nan;100308.91;4986610;28;19941;-86
2023/05/11 01:05:11;;;;;;;;;;;;;;;10.75;nan;100308.22;4989130;28;19932;-85
2023/05/11 01:07:55;;;;;;;;;;;;;;;10.73;nan;100302.28;4970941;28;20502;-85
2023/05/11 01:10:26;;;;;;;;;;;;;;;10.70;nan;100307.88;4970808;28;19922;-86
2023/05/11 01:12:51;;;;;;;;;;;;;;;10.66;nan;100300.41;4986512;28;20574;-85
2023/05/11 01:15:20;;;;;;;;;;;;;;;10.62;nan;100306.00;4986767;28;19929;-85
2023/05/11 01:17:52;;;;;;;;;;;;;;;10.63;nan;100312.97;4987179;28;20546;-86
2023/05/11 01:20:20;;;;;;;;;;;;;;;10.65;nan;100304.84;4986551;28;19929;-87
2023/05/11 01:22:57;;;;;;;;;;;;;;;10.68;nan;100306.34;4968351;28;19921;-86
2023/05/11 01:25:29;;;;;;;;;;;;;;;10.69;nan;100305.38;4985417;28;19926;-85
2023/05/11 01:28:09;;;;;;;;;;;;;;;10.70;nan;100302.59;4969765;28;19958;-85
2023/05/11 01:30:42;;;;;;;;;;;;;;;10.67;nan;100305.53;4986378;28;19922;-86
2023/05/11 01:33:10;;;;;;;;;;;;;;;10.63;nan;100307.69;4981126;28;19966;-86
2023/05/11 01:35:38;;;;;;;;;;;;;;;10.60;nan;100301.88;4986909;28;19997;-85
2023/05/11 01:38:05;;;;;;;;;;;;;;;10.58;nan;100309.13;4969002;28;19926;-85
2023/05/11 01:40:31;;;;;;;;;;;;;;;10.52;nan;100305.28;4986496;28;19933;-85
2023/05/11 01:42:59;;;;;;;;;;;;;;;10.50;nan;100307.25;4984128;28;19925;-85
2023/05/11 01:45:25;;;;;;;;;;;;;;;10.49;nan;100304.78;4986350;28;20396;-85
2023/05/11 01:47:51;;;;;;;;;;;;;;;10.48;nan;100316.34;4987286;28;19933;-85
2023/05/11 01:50:18;;;;;;;;;;;;;;;10.48;nan;100309.22;4986876;28;20397;-85
2023/05/11 01:52:45;;;;;;;;;;;;;;;10.49;nan;100312.72;4967501;28;19966;-86
2023/05/11 01:55:12;;;;;;;;;;;;;;;10.50;nan;100314.38;4984414;28;20451;-85
2023/05/11 01:57:38;;;;;;;;;;;;;;;10.51;nan;100303.66;4964006;28;19933;-86
2023/05/11 02:00:04;;;;;;;;;;;;;;;10.53;nan;100306.94;4970031;28;19921;-85
2023/05/11 02:02:30;;;;;;;;;;;;;;;10.54;nan;100311.25;4991648;28;19922;-86
2023/05/11 02:04:56;;;;;;;;;;;;;;;10.56;nan;100300.53;4975154;28;19944;-85
2023/05/11 02:07:23;;;;;;;;;;;;;;;10.57;nan;100312.75;4976897;28;19953;-86
2023/05/11 02:09:48;;;;;;;;;;;;;;;10.53;nan;100306.13;4976638;28;19922;-85
2023/05/11 02:12:16;;;;;;;;;;;;;;;10.52;nan;100309.75;4974065;28;20439;-86
2023/05/11 02:14:42;;;;;;;;;;;;;;;10.52;nan;100312.41;4974167;28;19925;-86
2023/05/11 02:17:07;;;;;;;;;;;;;;;10.53;nan;100304.28;4978358;28;19918;-86
2023/05/11 02:19:33;;;;;;;;;;;;;;;10.54;nan;100305.97;4977901;28;19995;-85
2023/05/11 02:21:59;;;;;;;;;;;;;;;10.57;nan;100302.19;4995395;28;19928;-86
2023/05/11 02:24:26;;;;;;;;;;;;;;;10.59;nan;100297.56;4976553;28;19953;-86
2023/05/11 02:26:52;;;;;;;;;;;;;;;10.59;nan;100302.88;4978125;28;20000;-86
2023/05/11 02:29:17;;;;;;;;;;;;;;;10.59;nan;100298.41;4995527;28;20020;-87
2023/05/11 02:31:43;;;;;;;;;;;;;;;10.58;nan;100299.41;4992813;28;20301;-85
2023/05/11 02:34:17;;;;;;;;;;;;;;;10.58;nan;100303.81;4991932;28;19930;-86
2023/05/11 02:36:43;;;;;;;;;;;;;;;10.59;nan;100301.03;4993974;28;19921;-87
2023/05/11 02:39:11;;;;;;;;;;;;;;;10.58;nan;100304.69;5010256;28;19922;-88
2023/05/11 02:41:40;;;;;;;;;;;;;;;10.58;nan;100304.69;4994210;28;19921;-86
2023/05/11 02:44:07;;;;;;;;;;;;;;;10.57;nan;100304.81;4992097;28;19928;-85
2023/05/11 02:46:35;;;;;;;;;;;;;;;10.55;nan;100299.69;4986038;28;20069;-87
2023/05/11 02:49:02;;;;;;;;;;;;;;;10.54;nan;100300.69;4993193;28;19928;-86
2023/05/11 02:51:30;;;;;;;;;;;;;;;10.53;nan;100300.84;4989012;28;20016;-85
2023/05/11 02:53:57;;;;;;;;;;;;;;;10.52;nan;100299.19;4992946;28;20299;-85
2023/05/11 02:56:23;;;;;;;;;;;;;;;10.52;nan;100299.19;4992841;28;19928;-85
2023/05/11 02:58:48;;;;;;;;;;;;;;;10.52;nan;100304.47;4992940;28;20358;-86
2023/05/11 03:01:14;;;;;;;;;;;;;;;10.50;nan;100301.97;4991970;28;19972;-85
2023/05/11 03:03:39;;;;;;;;;;;;;;;10.48;nan;100298.66;4990466;28;19968;-85
2023/05/11 03:06:05;;;;;;;;;;;;;;;10.49;nan;100297.69;4990059;28;19944;-86
2023/05/11 03:08:30;;;;;;;;;;;;;;;10.48;nan;100303.94;4992304;28;19922;-84
2023/05/11 03:10:57;;;;;;;;;;;;;;;10.46;nan;100307.72;4990979;28;19999;-85
2023/05/11 03:13:23;;;;;;;;;;;;;;;10.43;nan;100300.94;4988879;28;19926;-84
2023/05/11 03:15:49;;;;;;;;;;;;;;;10.41;nan;100302.91;4986910;28;19980;-86
2023/05/11 03:18:15;;;;;;;;;;;;;;;10.41;nan;100309.03;4989526;28;19928;-87
2023/05/11 03:20:42;;;;;;;;;;;;;;;10.43;nan;100306.22;4988361;28;19922;-86
2023/05/11 03:23:07;;;;;;;;;;;;;;;10.46;nan;100310.38;4990001;28;20844;-86
2023/05/11 03:25:32;;;;;;;;;;;;;;;10.47;nan;100310.22;4988364;28;19921;-87
2023/05/11 03:27:59;;;;;;;;;;;;;;;10.48;nan;100303.13;4989348;28;19930;-87
2023/05/11 03:30:25;;;;;;;;;;;;;;;10.50;nan;100304.63;4987412;28;19929;-85
2023/05/11 03:32:51;;;;;;;;;;;;;;;10.50;nan;100304.63;4987310;28;19926;-86
2023/05/11 03:35:20;;;;;;;;;;;;;;;10.51;nan;100303.66;4987746;28;20393;-87
2023/05/11 03:37:46;;;;;;;;;;;;;;;10.51;nan;100297.50;4988465;28;19936;-86
2023/05/11 03:40:13;;;;;;;;;;;;;;;10.50;nan;100296.69;4987464;28;20525;-86
2023/05/11 03:42:39;;;;;;;;;;;;;;;10.52;nan;100293.91;4986490;28;20044;-86
2023/05/11 03:45:06;;;;;;;;;;;;;;;10.53;nan;100303.47;4988440;28;19928;-86
2023/05/11 03:47:32;;;;;;;;;;;;;;;10.52;nan;100293.91;4987979;28;19932;-86
2023/05/11 03:49:57;;;;;;;;;;;;;;;10.53;nan;100300.84;4984776;28;20337;-87
2023/05/11 03:52:23;;;;;;;;;;;;;;;10.53;nan;100309.59;4985927;28;20017;-87
2023/05/11 03:54:48;;;;;;;;;;;;;;;10.53;nan;100303.47;4988816;28;19926;-86
2023/05/11 03:57:13;;;;;;;;;;;;;;;10.53;nan;100308.75;4987843;28;19957;-85
2023/05/11 03:59:39;;;;;;;;;;;;;;;10.50;nan;100301.97;4988504;28;20337;-86
2023/05/11 04:02:04;;;;;;;;;;;;;;;10.49;nan;100302.97;4988319;28;19929;-85
2023/05/11 04:04:30;;;;;;;;;;;;;;;10.49;nan;100304.78;4985778;28;19929;-86
2023/05/11 04:06:56;;;;;;;;;;;;;;;10.49;nan;100302.97;4987533;28;20012;-85
2023/05/11 04:09:21;;;;;;;;;;;;;;;10.52;nan;100304.47;4988248;28;19922;-85
2023/05/11 04:12:10;;;;;;;;;;;;;;;10.55;nan;100301.50;4989004;28;19922;-86
2023/05/11 04:14:35;;;;;;;;;;;;;;;10.59;nan;100295.75;4963408;28;19936;-85
2023/05/11 04:17:00;;;;;;;;;;;;;;;10.63;nan;100298.94;4989030;28;20044;-86
2023/05/11 04:19:26;;;;;;;;;;;;;;;10.66;nan;100297.78;4989308;28;19922;-86
2023/05/11 04:21:51;;;;;;;;;;;;;;;10.66;nan;100306.53;5005248;28;20354;-85
2023/05/11 04:24:16;;;;;;;;;;;;;;;10.66;nan;100308.34;4985792;28;19943;-85
2023/05/11 04:26:41;;;;;;;;;;;;;;;10.68;nan;100303.72;4988656;28;19921;-85
2023/05/11 04:29:07;;;;;;;;;;;;;;;10.72;nan;100310.34;4989045;28;19922;-85
2023/05/11 04:31:32;;;;;;;;;;;;;;;10.75;nan;100302.94;4989644;28;19925;-86
2023/05/11 04:33:57;;;;;;;;;;;;;;;10.79;nan;100308.72;4988723;28;20365;-85
2023/05/11 04:36:23;;;;;;;;;;;;;;;10.81;nan;100310.22;4989495;28;19926;-86
2023/05/11 04:38:49;;;;;;;;;;;;;;;10.84;nan;100307.28;4971706;28;19983;-86
2023/05/11 04:41:14;;;;;;;;;;;;;;;10.86;nan;100309.75;4972771;28;19918;-85
2023/05/11 04:43:39;;;;;;;;;;;;;;;10.90;nan;100319.03;4971110;28;19917;-85
2023/05/11 04:46:05;;;;;;;;;;;;;;;10.94;nan;100312.44;4990161;28;20412;-86
2023/05/11 04:48:30;;;;;;;;;;;;;;;10.97;nan;100316.59;4971473;28;19922;-85
2023/05/11 04:50:56;;;;;;;;;;;;;;;11.01;nan;100315.25;4972332;28;19918;-86
2023/05/11 04:53:21;;;;;;;;;;;;;;;11.06;nan;100315.63;4970386;28;19918;-86
2023/05/11 04:55:46;;;;;;;;;;;;;;;11.10;nan;100319.59;4987588;28;20294;-86
2023/05/11 04:58:11;;;;;;;;;;;;;;;11.16;nan;100321.63;4969946;28;20393;-86
2023/05/11 05:00:37;;;;;;;;;;;;;;;11.21;nan;100321.97;4985654;28;20293;-86
2023/05/11 05:03:02;;;;;;;;;;;;;;;11.29;nan;100323.78;4986386;28;19969;-85
2023/05/11 05:05:28;;;;;;;;;;;;;;;11.33;nan;100322.50;4970173;28;20429;-88
2023/05/11 05:07:53;;;;;;;;;;;;;;;11.38;nan;100320.19;4990518;28;19976;-87
2023/05/11 05:10:21;;;;;;;;;;;;;;;11.42;nan;100318.06;4972636;28;19922;-86
2023/05/11 05:12:46;;;;;;;;;;;;;;;11.50;nan;100325.19;4982764;28;19981;-85
2023/05/11 05:15:12;;;;;;;;;;;;;;;11.56;nan;100322.72;4981204;28;20386;-86
2023/05/11 05:17:37;;;;;;;;;;;;;;;11.62;nan;100327.34;4970757;28;19925;-85
2023/05/11 05:20:03;;;;;;;;;;;;;;;11.72;nan;100329.00;4969546;28;19921;-85
2023/05/11 05:22:29;;;;;;;;;;;;;;;11.79;nan;100328.19;4987097;28;20278;-86
2023/05/11 05:24:54;;;;;;;;;;;;;;;11.85;nan;100332.84;4969951;28;20336;-86
2023/05/11 05:27:19;;;;;;;;;;;;;;;11.93;nan;100332.03;4969278;28;20211;-86
2023/05/11 05:29:44;;;;;;;;;;;;;;;12.02;nan;100339.00;4969494;28;19944;-86
2023/05/11 05:32:10;;;;;;;;;;;;;;;12.04;nan;100339.66;4969603;28;19976;-85
2023/05/11 05:34:35;;;;;;;;;;;;;;;12.10;nan;100341.63;4968385;28;19926;-86
2023/05/11 05:37:00;;;;;;;;;;;;;;;12.15;nan;100345.63;4969469;28;19980;-86
2023/05/11 05:39:25;;;;;;;;;;;;;;;12.21;nan;100344.97;4969968;28;20373;-86
2023/05/11 05:41:51;;;;;;;;;;;;;;;12.29;nan;100344.94;4968957;28;19928;-86
2023/05/11 05:44:16;;;;;;;;;;;;;;;12.36;nan;100345.94;4968402;28;19926;-87
2023/05/11 05:46:41;;;;;;;;;;;;;;;12.44;nan;100351.22;4970825;28;19926;-87
2023/05/11 05:49:06;;;;;;;;;;;;;;;12.50;nan;100355.84;4970402;28;19975;-86
2023/05/11 05:51:32;;;;;;;;;;;;;;;12.55;nan;100355.34;4969722;28;20004;-86
2023/05/11 05:53:57;;;;;;;;;;;;;;;12.59;nan;100354.03;4984092;28;19925;-86
2023/05/11 05:56:25;;;;;;;;;;;;;;;12.65;nan;100352.50;4971052;28;19929;-85
2023/05/11 05:58:50;;;;;;;;;;;;;;;12.72;nan;100366.75;4986124;28;19965;-85
2023/05/11 06:01:16;;;;;;;;;;;;;;;12.71;nan;100363.28;4969479;28;20381;-85
2023/05/11 06:03:43;;;;;;;;;;;;;;;12.78;nan;100362.59;4966493;28;20008;-86
2023/05/11 06:06:08;;;;;;;;;;;;;;;12.73;nan;100365.75;4967323;28;19922;-86
2023/05/11 06:08:34;;;;;;;;;;;;;;;12.80;nan;100364.09;4968918;28;19929;-85
2023/05/11 06:10:59;;;;;;;;;;;;;;;12.86;nan;100362.56;4989237;28;20382;-85
2023/05/11 06:13:24;;;;;;;;;;;;;;;12.88;nan;100365.88;4967965;28;19936;-85
2023/05/11 06:15:50;;;;;;;;;;;;;;;12.96;nan;100373.81;4966969;28;19925;-85
2023/05/11 06:18:15;;;;;;;;;;;;;;;12.98;nan;100366.50;4969612;28;19918;-86
2023/05/11 06:20:41;;;;;;;;;;;;;;;12.95;nan;100367.69;4971173;28;19918;-86
2023/05/11 06:23:06;;;;;;;;;;;;;;;12.96;nan;100377.28;4985931;28;19928;-85
2023/05/11 06:25:35;;;;;;;;;;;;;;;13.04;nan;100375.59;4979637;28;19930;-85
2023/05/11 06:28:00;;;;;;;;;;;;;;;13.09;nan;100375.94;4988753;28;19957;-86
2023/05/11 06:30:26;;;;;;;;;;;;;;;13.08;nan;100371.63;4987533;28;20011;-85
2023/05/11 06:32:51;;;;;;;;;;;;;;;13.12;nan;100370.28;4969958;28;19929;-86
2023/05/11 06:35:16;;;;;;;;;;;;;;;13.18;nan;100358.97;4970464;28;19950;-86
2023/05/11 06:37:41;;;;;;;;;;;;;;;13.29;nan;100366.56;4970875;28;19922;-85
2023/05/11 06:40:07;;;;;;;;;;;;;;;13.40;nan;100368.03;4969742;28;19977;-86
2023/05/11 06:42:32;;;;;;;;;;;;;;;13.46;nan;100364.66;4984329;28;19929;-86
2023/05/11 06:44:57;;;;;;;;;;;;;;;13.48;nan;100365.31;4967946;28;19930;-85
2023/05/11 06:47:23;;;;;;;;;;;;;;;13.54;nan;100363.81;4987661;28;20021;-86
2023/05/11 06:49:48;;;;;;;;;;;;;;;13.67;nan;100363.22;4988565;28;19918;-86
2023/05/11 06:52:13;;;;;;;;;;;;;;;13.75;nan;100368.47;4970105;28;19922;-86
2023/05/11 06:54:38;;;;;;;;;;;;;;;13.90;nan;100376.53;4972595;28;20397;-86
2023/05/11 06:57:04;;;;;;;;;;;;;;;13.98;nan;100365.81;4988480;28;19928;-87
2023/05/11 06:59:29;;;;;;;;;;;;;;;14.03;nan;100364.28;4969841;28;19922;-86
2023/05/11 07:01:57;;;;;;;;;;;;;;;14.07;nan;100364.75;4986827;28;19937;-85
2023/05/11 07:04:23;;;;;;;;;;;;;;;14.12;nan;100357.06;4970750;28;20314;-87
2023/05/11 07:06:48;;;;;;;;;;;;;;;14.21;nan;100368.47;4973804;28;19921;-87
2023/05/11 07:09:14;;;;;;;;;;;;;;;14.27;nan;100365.06;4991909;28;20013;-87
2023/05/11 07:11:40;;;;;;;;;;;;;;;14.32;nan;100365.34;4968177;28;19930;-86
2023/05/11 07:14:07;;;;;;;;;;;;;;;14.37;nan;100371.00;4969162;28;19926;-86
2023/05/11 07:16:36;;;;;;;;;;;;;;;14.37;nan;100365.66;4971416;28;19988;-86
2023/05/11 07:19:02;;;;;;;;;;;;;;;14.32;nan;100367.19;4975047;28;19960;-86
2023/05/11 07:21:27;;;;;;;;;;;;;;;14.06;nan;100367.59;4972673;28;19943;-86
2023/05/11 07:23:52;;;;;;;;;;;;;;;14.11;nan;100371.38;4984881;28;20013;-86
2023/05/11 07:26:18;;;;;;;;;;;;;;;14.10;nan;100375.03;4970467;28;19926;-87
2023/05/11 07:28:43;;;;;;;;;;;;;;;14.25;nan;100377.72;4988972;28;20143;-87
2023/05/11 07:31:08;;;;;;;;;;;;;;;14.34;nan;100374.00;4973305;28;19972;-86
2023/05/11 07:33:35;;;;;;;;;;;;;;;14.44;nan;100377.25;4962474;28;19922;-86
2023/05/11 07:36:01;;;;;;;;;;;;;;;14.47;nan;100377.88;4970908;28;19980;-86
2023/05/11 07:38:26;;;;;;;;;;;;;;;14.33;nan;100374.19;4969097;28;19926;-86
2023/05/11 07:40:51;;;;;;;;;;;;;;;14.24;nan;100371.59;4988025;28;19925;-86
2023/05/11 07:43:16;;;;;;;;;;;;;;;14.16;nan;100369.00;4972558;28;20321;-86
2023/05/11 07:45:42;;;;;;;;;;;;;;;14.22;nan;100376.25;4987643;28;20017;-86
2023/05/11 07:48:07;;;;;;;;;;;;;;;14.26;nan;100374.06;4971202;28;19921;-85
2023/05/11 07:50:32;;;;;;;;;;;;;;;14.35;nan;100369.50;4981131;28;19921;-86
2023/05/11 07:52:57;;;;;;;;;;;;;;;14.42;nan;100376.59;4982756;28;19935;-86
2023/05/11 07:55:28;;;;;;;;;;;;;;;14.35;nan;100377.47;4967176;28;19934;-85
2023/05/11 07:57:54;;;;;;;;;;;;;;;14.29;nan;100375.53;4970823;28;19980;-86
2023/05/11 08:00:19;;;;;;;;;;;;;;;14.31;nan;100376.19;4971448;28;19961;-86
2023/05/11 08:02:45;;;;;;;;;;;;;;;14.37;nan;100364.81;4986595;28;19922;-86
2023/05/11 08:05:10;;;;;;;;;;;;;;;14.45;nan;100372.75;4969251;28;19929;-86
2023/05/11 08:07:35;;;;;;;;;;;;;;;14.45;nan;100372.75;4973015;28;19918;-86
2023/05/11 08:10:00;;;;;;;;;;;;;;;14.45;nan;100373.56;4988293;28;19946;-86
2023/05/11 08:12:26;;;;;;;;;;;;;;;14.57;nan;100376.66;4971847;28;19985;-86
2023/05/11 08:14:51;;;;;;;;;;;;;;;14.64;nan;100376.75;4969407;28;19926;-86
2023/05/11 08:17:16;;;;;;;;;;;;;;;14.72;nan;100370.50;4973655;28;20282;-85
2023/05/11 08:19:41;;;;;;;;;;;;;;;14.85;nan;100370.72;4970607;28;20292;-86
2023/05/11 08:22:07;;;;;;;;;;;;;;;14.96;nan;100372.06;4971393;28;20370;-87
2023/05/11 08:24:32;;;;;;;;;;;;;;;15.01;nan;100373.16;4967309;28;19925;-86
2023/05/11 08:26:57;;;;;;;;;;;;;;;14.97;nan;100371.91;4989784;28;19937;-86
2023/05/11 08:29:26;;;;;;;;;;;;;;;15.06;nan;100380.59;4987966;28;19922;-86
2023/05/11 08:31:51;;;;;;;;;;;;;;;15.29;nan;100375.16;4987813;28;20031;-86
2023/05/11 08:34:16;;;;;;;;;;;;;;;15.52;nan;100383.03;4969457;28;19993;-87
2023/05/11 08:36:41;;;;;;;;;;;;;;;15.58;nan;100376.94;4970774;28;19956;-86
2023/05/11 08:39:06;;;;;;;;;;;;;;;15.53;nan;100379.34;4968532;28;19929;-87
2023/05/11 08:41:32;;;;;;;;;;;;;;;15.56;nan;100383.47;4988197;28;20302;-86
2023/05/11 08:43:58;;;;;;;;;;;;;;;15.60;nan;100382.09;4982925;28;19930;-87
2023/05/11 08:46:28;;;;;;;;;;;;;;;15.54;nan;100377.50;4969708;28;19924;-86
2023/05/11 08:48:54;;;;;;;;;;;;;;;15.47;nan;100377.44;4971176;28;20388;-86
2023/05/11 08:51:19;;;;;;;;;;;;;;;15.48;nan;100377.22;4971196;28;19921;-87
2023/05/11 08:53:45;;;;;;;;;;;;;;;15.50;nan;100369.06;4969695;28;20503;-87
2023/05/11 08:56:10;;;;;;;;;;;;;;;15.50;nan;100371.72;4984969;28;19976;-86
2023/05/11 08:58:37;;;;;;;;;;;;;;;15.48;nan;100377.22;4970375;28;19922;-86
2023/05/11 09:01:03;;;;;;;;;;;;;;;15.38;nan;100371.38;4969532;28;20378;-87
2023/05/11 09:03:28;;;;;;;;;;;;;;;15.35;nan;100371.75;4988075;28;19932;-86
2023/05/11 09:05:54;;;;;;;;;;;;;;;15.45;nan;100377.63;4966891;28;19932;-87
2023/05/11 09:08:20;;;;;;;;;;;;;;;15.38;nan;100374.03;4967818;28;19925;-86
2023/05/11 09:10:47;;;;;;;;;;;;;;;15.44;nan;100383.94;4964999;28;19969;-87
2023/05/11 09:13:13;;;;;;;;;;;;;;;15.56;nan;100386.13;4969813;28;20112;-90
2023/05/11 09:15:38;;;;;;;;;;;;;;;15.65;nan;100385.00;4970068;28;19934;-87
2023/05/11 09:18:03;;;;;;;;;;;;;;;15.72;nan;100391.25;4986307;28;19922;-87
2023/05/11 09:20:30;;;;;;;;;;;;;;;15.71;nan;100386.97;4969204;28;19922;-86
2023/05/11 09:22:55;;;;;;;;;;;;;;;15.77;nan;100391.53;4969404;28;20041;-86
2023/05/11 09:25:21;;;;;;;;;;;;;;;15.84;nan;100383.59;4986372;28;19978;-86
2023/05/11 09:27:46;;;;;;;;;;;;;;;15.94;nan;100389.44;4969059;28;20021;-87
2023/05/11 09:30:13;;;;;;;;;;;;;;;16.02;nan;100377.84;4987225;28;20021;-86
2023/05/11 09:32:51;;;;;;;;;;;;;;;16.09;nan;100381.38;4984736;28;20432;-87
2023/05/11 09:35:22;;;;;;;;;;;;;;;16.13;nan;100379.97;4986145;28;20033;-88
2023/05/11 09:38:04;;;;;;;;;;;;;;;16.19;nan;100379.22;4987285;28;20397;-86
2023/05/11 09:40:35;;;;;;;;;;;;;;;16.27;nan;100378.25;4985435;28;20398;-87
2023/05/11 09:43:02;;;;;;;;;;;;;;;16.31;nan;100377.66;4982534;28;20408;-87
2023/05/11 09:45:34;;;;;;;;;;;;;;;16.42;nan;100384.34;4982077;28;20000;-87
2023/05/11 09:48:01;;;;;;;;;;;;;;;16.51;nan;100382.31;4984296;28;19929;-87
2023/05/11 09:50:30;;;;;;;;;;;;;;;16.58;nan;100385.88;4985611;28;20193;-87
2023/05/11 09:52:56;;;;;;;;;;;;;;;16.63;nan;100382.63;4985825;28;20393;-89
2023/05/11 09:55:21;;;;;;;;;;;;;;;16.47;nan;100381.91;4984913;28;19936;-88
2023/05/11 09:57:52;;;;;;;;;;;;;;;16.38;nan;100380.41;4985464;28;19926;-90
2023/05/11 10:00:17;;;;;;;;;;;;;;;16.42;nan;100378.16;4986494;28;19961;-89
2023/05/11 10:02:42;;;;;;;;;;;;;;;16.44;nan;100378.78;4981607;28;20397;-90
2023/05/11 10:05:12;;;;;;;;;;;;;;;16.45;nan;100375.94;4984374;28;20157;-87
2023/05/11 10:07:38;;;;;;;;;;;;;;;16.50;nan;100384.19;4981489;28;19928;-88
2023/05/11 10:10:03;;;;;;;;;;;;;;;16.64;nan;100384.28;4986820;28;20294;-88
2023/05/11 10:12:31;;;;;;;;;;;;;;;16.62;nan;100383.66;4984252;28;19925;-89
2023/05/11 10:15:09;;;;;;;;;;;;;;;16.61;nan;100380.13;4983742;28;19932;-88
2023/05/11 10:17:35;;;;;;;;;;;;;;;16.85;nan;100388.75;4985118;28;19930;-87
2023/05/11 10:20:02;;;;;;;;;;;;;;;17.13;nan;100373.47;4986445;28;20308;-87
2023/05/11 10:22:27;;;;;;;;;;;;;;;17.38;nan;100379.16;4986118;28;19926;-87
2023/05/11 10:24:54;;;;;;;;;;;;;;;17.57;nan;100369.56;4983063;28;19972;-87
2023/05/11 10:27:20;;;;;;;;;;;;;;;17.56;nan;100369.75;4991163;28;19930;-87
2023/05/11 10:29:46;;;;;;;;;;;;;;;17.68;nan;100372.66;4977735;28;19953;-87
2023/05/11 10:32:12;;;;;;;;;;;;;;;17.75;nan;100368.16;4971873;28;20400;-87
2023/05/11 10:34:40;;;;;;;;;;;;;;;17.79;nan;100374.75;4969354;28;19978;-89
2023/05/11 10:37:07;;;;;;;;;;;;;;;17.74;nan;100364.66;4987513;28;19922;-87
2023/05/11 10:39:35;;;;;;;;;;;;;;;17.69;nan;100364.44;4969895;28;19934;-87
2023/05/11 10:42:13;;;;;;;;;;;;;;;17.66;nan;100364.00;4968008;28;19922;-88
2023/05/11 10:44:45;;;;;;;;;;;;;;;17.63;nan;100362.56;4971478;28;20009;-90
2023/05/11 10:47:30;;;;;;;;;;;;;;;17.74;nan;100366.50;4976209;28;19946;-90
2023/05/11 10:49:55;;;;;;;;;;;;;;;17.99;nan;100361.41;4967911;28;20401;-88
2023/05/11 10:52:41;;;;;;;;;;;;;;;18.18;nan;100359.78;4971908;28;19922;-88
2023/05/11 10:55:19;;;;;;;;;;;;;;;18.36;nan;100356.50;4987564;28;20385;-87
2023/05/11 10:57:56;;;;;;;;;;;;;;;18.27;nan;100358.56;4970442;28;19921;-89
2023/05/11 11:00:34;;;;;;;;;;;;;;;18.24;nan;100356.28;4970793;28;20302;-88
2023/05/11 11:03:09;;;;;;;;;;;;;;;18.33;nan;100355.06;4971140;28;19928;-89
2023/05/11 11:05:37;;;;;;;;;;;;;;;18.53;nan;100360.38;4970016;28;20352;-88
2023/05/11 11:08:02;;;;;;;;;;;;;;;18.59;nan;100364.06;4987009;28;20205;-88
2023/05/11 11:10:39;;;;;;;;;;;;;;;18.66;nan;100359.53;4973041;28;19964;-88
2023/05/11 11:13:08;;;;;;;;;;;;;;;18.85;nan;100360.56;4973961;28;19990;-88
2023/05/11 11:15:51;;;;;;;;;;;;;;;19.08;nan;100349.34;4989523;28;19926;-89
2023/05/11 11:18:21;;;;;;;;;;;;;;;19.24;nan;100353.44;4971289;28;20012;-89
2023/05/11 11:20:48;;;;;;;;;;;;;;;19.28;nan;100354.63;4974228;28;20382;-88
2023/05/11 11:23:36;;;;;;;;;;;;;;;19.27;nan;100353.00;4968728;28;19922;-89
2023/05/11 11:26:02;;;;;;;;;;;;;;;19.15;nan;100347.47;4976257;28;20291;-88
2023/05/11 11:28:48;;;;;;;;;;;;;;;19.09;nan;100345.63;4987088;28;21295;-88
2023/05/11 11:31:24;;;;;;;;;;;;;;;18.94;nan;100339.72;4993592;28;19932;-89
2023/05/11 11:33:49;;;;;;;;;;;;;;;18.98;nan;100343.63;4990649;28;19957;-89
2023/05/11 11:36:15;;;;;;;;;;;;;;;19.06;nan;100340.69;4990145;28;19980;-89
2023/05/11 11:38:57;;;;;;;;;;;;;;;19.13;nan;100346.03;4988716;28;19921;-89
2023/05/11 11:41:27;;;;;;;;;;;;;;;19.10;nan;100342.75;4989662;28;19922;-90
2023/05/11 11:43:54;;;;;;;;;;;;;;;19.12;nan;100339.06;4987142;28;19934;-86
2023/05/11 11:46:27;;;;;;;;;;;;;;;19.17;nan;100341.91;4990211;28;19957;-87
2023/05/11 11:49:04;;;;;;;;;;;;;;;19.13;nan;100338.81;4992648;28;19926;-88
2023/05/11 11:51:36;;;;;;;;;;;;;;;18.89;nan;100337.66;4982961;28;19925;-88
2023/05/11 11:54:02;;;;;;;;;;;;;;;19.00;nan;100338.88;4988497;28;19925;-88
2023/05/11 11:56:27;;;;;;;;;;;;;;;19.03;nan;100330.41;4986949;28;19922;-88
2023/05/11 11:58:59;;;;;;;;;;;;;;;18.94;nan;100337.03;4999560;28;20024;-85
2023/05/11 12:01:26;;;;;;;;;;;;;;;18.86;nan;100335.44;4986723;28;19950;-86
2023/05/11 12:03:54;;;;;;;;;;;;;;;18.94;nan;100326.31;4985140;28;20525;-86
2023/05/11 12:06:21;;;;;;;;;;;;;;;19.02;nan;100337.63;4984253;28;19934;-87
2023/05/11 12:08:47;;;;;;;;;;;;;;;19.09;nan;100333.06;4987222;28;20444;-85
2023/05/11 12:11:15;;;;;;;;;;;;;;;19.09;nan;100332.22;4985542;28;19996;-87
2023/05/11 12:13:41;;;;;;;;;;;;;;;19.12;nan;100329.16;5000468;28;19929;-87
2023/05/11 12:16:11;;;;;;;;;;;;;;;19.21;nan;100322.50;4984790;28;19926;-86
2023/05/11 12:18:36;;;;;;;;;;;;;;;19.14;nan;100331.59;5001819;28;19932;-85
2023/05/11 12:21:02;;;;;;;;;;;;;;;19.17;nan;100326.66;4989078;28;20401;-85
2023/05/11 12:23:28;;;;;;;;;;;;;;;19.38;nan;100322.84;4985522;28;19991;-86
2023/05/11 12:26:03;;;;;;;;;;;;;;;19.53;nan;100322.53;4986627;28;19922;-86
2023/05/11 12:28:29;;;;;;;;;;;;;;;19.68;nan;100324.94;4985497;28;20387;-86
2023/05/11 12:30:54;;;;;;;;;;;;;;;19.66;nan;100321.63;4985081;28;19949;-85
2023/05/11 12:33:20;;;;;;;;;;;;;;;19.66;nan;100324.31;4987058;28;20185;-86
2023/05/11 12:35:50;;;;;;;;;;;;;;;19.53;nan;100314.50;4997907;28;20411;-87
2023/05/11 12:38:16;;;;;;;;;;;;;;;19.45;nan;100315.56;4983971;28;20545;-86
2023/05/11 12:40:46;;;;;;;;;;;;;;;19.50;nan;100312.25;4987209;28;19933;-87
2023/05/11 12:43:15;;;;;;;;;;;;;;;19.49;nan;100307.91;4983530;28;19922;-87
2023/05/11 12:45:40;;;;;;;;;;;;;;;19.49;nan;100311.41;4984635;28;19926;-87
2023/05/11 12:48:06;;;;;;;;;;;;;;;19.46;nan;100308.34;4985685;28;20013;-88
2023/05/11 12:50:31;;;;;;;;;;;;;;;19.24;nan;100306.00;4975607;28;19977;-88
2023/05/11 12:53:10;;;;;;;;;;;;;;;19.40;nan;100303.84;4985660;28;19925;-88
2023/05/11 12:55:36;;;;;;;;;;;;;;;19.56;nan;100308.69;4983653;28;19929;-86
2023/05/11 12:58:09;;;;;;;;;;;;;;;19.65;nan;100302.03;4979268;28;20119;-87